createdAt,value
2023-08-25T00:00:25.917Z,16.60
2023-08-25T00:02:55.457Z,16.60
2023-08-25T00:05:25.094Z,16.60
2023-08-25T00:07:56.075Z,16.60
2023-08-25T00:10:25.411Z,16.70
2023-08-25T00:12:54.162Z,16.70
2023-08-25T00:15:24.824Z,16.70
2023-08-25T00:17:55.802Z,16.90
2023-08-25T00:20:26.694Z,16.80
2023-08-25T00:22:57.505Z,16.90
2023-08-25T00:25:26.465Z,16.90
2023-08-25T00:27:55.959Z,16.90
2023-08-25T00:30:25.653Z,16.80
2023-08-25T00:32:59.504Z,16.80
2023-08-25T00:35:28.944Z,16.70
2023-08-25T00:38:01.202Z,16.70
2023-08-25T00:40:30.852Z,16.70
2023-08-25T00:43:00.593Z,16.70
2023-08-25T00:45:30.480Z,16.70
2023-08-25T00:47:59.610Z,16.60
2023-08-25T00:50:30.856Z,16.70
2023-08-25T00:53:02.493Z,16.70
2023-08-25T00:55:32.504Z,16.80
2023-08-25T00:58:03.448Z,16.80
2023-08-25T01:00:32.838Z,16.80
2023-08-25T01:03:03.342Z,16.90
2023-08-25T01:05:33.022Z,17.10
2023-08-25T01:08:07.030Z,16.90
2023-08-25T01:10:47.917Z,17.10
2023-08-25T01:13:22.945Z,17.10
2023-08-25T01:15:55.792Z,17.10
2023-08-25T01:18:30.361Z,17.10
2023-08-25T01:21:01.568Z,17.20
2023-08-25T01:23:38.459Z,17.10
2023-08-25T01:26:11.453Z,17.00
2023-08-25T01:28:42.792Z,17.10
2023-08-25T01:31:12.276Z,17.10
2023-08-25T01:33:47.462Z,17.20
2023-08-25T01:36:27.071Z,17.20
2023-08-25T01:39:06.448Z,17.20
2023-08-25T01:41:45.162Z,17.20
2023-08-25T01:44:16.407Z,17.40
2023-08-25T01:46:47.489Z,17.40
2023-08-25T01:49:17.273Z,17.40
2023-08-25T01:51:47.461Z,17.50
2023-08-25T01:54:16.675Z,17.50
2023-08-25T01:56:47.104Z,17.50
2023-08-25T02:01:45.466Z,17.50
2023-08-25T02:06:44.352Z,17.00
2023-08-25T02:09:16.368Z,17.50
2023-08-25T02:11:47.044Z,17.40
2023-08-25T02:16:51.046Z,17.00
2023-08-25T02:19:20.017Z,17.60
2023-08-25T02:21:49.586Z,17.40
2023-08-25T02:26:49.104Z,17.40
2023-08-25T02:31:46.944Z,17.50
2023-08-25T02:36:48.796Z,17.70
2023-08-25T02:41:49.775Z,17.60
2023-08-25T02:46:47.951Z,18.30
2023-08-25T02:51:47.419Z,17.70
2023-08-25T02:54:16.130Z,17.90
2023-08-25T02:56:45.443Z,17.70
2023-08-25T02:59:15.741Z,17.90
2023-08-25T03:01:45.118Z,17.90
2023-08-25T03:04:14.095Z,18.00
2023-08-25T03:06:42.913Z,18.00
2023-08-25T03:11:40.831Z,17.90
2023-08-25T03:16:42.512Z,17.70
2023-08-25T03:21:41.036Z,17.80
2023-08-25T03:24:10.055Z,17.90
2023-08-25T03:26:38.670Z,17.70
2023-08-25T03:29:08.926Z,17.50
2023-08-25T03:31:39.687Z,17.70
2023-08-25T03:34:10.369Z,17.70
2023-08-25T03:36:39.008Z,17.80
2023-08-25T03:39:08.191Z,17.60
2023-08-25T03:41:36.896Z,17.70
2023-08-25T03:46:34.567Z,17.60
2023-08-25T03:49:04.128Z,17.70
2023-08-25T03:51:36.085Z,17.70
2023-08-25T03:54:05.035Z,17.60
2023-08-25T03:56:34.240Z,17.60
2023-08-25T03:59:02.884Z,17.60
2023-08-25T04:04:02.808Z,17.50
2023-08-25T04:06:31.555Z,17.50
2023-08-25T04:09:01.495Z,17.60
2023-08-25T04:11:31.667Z,17.50
2023-08-25T04:14:00.318Z,17.40
2023-08-25T04:16:29.540Z,17.40
2023-08-25T04:18:58.310Z,17.60
2023-08-25T04:21:27.702Z,17.60
2023-08-25T04:23:56.203Z,17.70
2023-08-25T04:26:26.928Z,17.60
2023-08-25T04:28:55.683Z,18.40
2023-08-25T04:31:24.877Z,17.60
2023-08-25T04:33:58.550Z,17.70
2023-08-25T04:36:27.462Z,17.70
2023-08-25T04:38:56.086Z,17.70
2023-08-25T04:41:28.820Z,17.70
2023-08-25T04:43:58.159Z,17.90
2023-08-25T04:46:29.864Z,17.90
2023-08-25T04:49:00.122Z,17.90
2023-08-25T04:51:29.322Z,18.40
2023-08-25T04:56:29.757Z,17.90
2023-08-25T04:58:58.917Z,18.10
2023-08-25T05:01:27.968Z,18.20
2023-08-25T05:06:26.312Z,18.20
2023-08-25T05:11:30.269Z,18.30
2023-08-25T05:14:00.526Z,18.40
2023-08-25T05:16:29.738Z,18.30
2023-08-25T05:19:15.477Z,18.50
2023-08-25T05:21:44.145Z,18.40
2023-08-25T05:24:20.314Z,18.30
2023-08-25T05:26:52.884Z,18.30
2023-08-25T05:29:22.945Z,18.60
2023-08-25T05:31:52.368Z,18.50
2023-08-25T05:34:41.244Z,18.40
2023-08-25T05:37:11.499Z,18.60
2023-08-25T05:39:40.319Z,18.70
2023-08-25T05:42:11.578Z,18.70
2023-08-25T05:49:39.970Z,19.10
2023-08-25T05:52:09.255Z,19.00
2023-08-25T05:54:39.864Z,19.00
2023-08-25T05:57:11.205Z,18.80
2023-08-25T06:02:10.820Z,19.40
2023-08-25T06:07:08.603Z,19.70
2023-08-25T06:12:07.921Z,20.60
2023-08-25T06:14:38.705Z,20.80
2023-08-25T06:17:07.266Z,20.70
2023-08-25T06:19:37.855Z,21.00
2023-08-25T06:22:06.699Z,21.00
2023-08-25T06:24:35.483Z,20.90
2023-08-25T06:27:05.080Z,21.30
2023-08-25T06:29:34.756Z,21.50
2023-08-25T06:32:05.086Z,21.40
2023-08-25T06:34:34.912Z,21.50
2023-08-25T06:37:03.556Z,21.50
2023-08-25T06:39:32.208Z,21.90
2023-08-25T06:42:02.056Z,22.20
2023-08-25T06:44:30.971Z,22.00
2023-08-25T06:47:00.467Z,22.30
2023-08-25T06:49:30.824Z,22.20
2023-08-25T06:51:59.732Z,22.50
2023-08-25T06:54:28.678Z,22.70
2023-08-25T06:56:57.673Z,22.70
2023-08-25T06:59:26.497Z,22.90
2023-08-25T07:01:55.164Z,22.80
2023-08-25T07:06:54.478Z,22.90
2023-08-25T07:09:23.323Z,23.10
2023-08-25T07:11:52.572Z,23.20
2023-08-25T07:14:21.138Z,23.30
2023-08-25T07:16:49.610Z,23.80
2023-08-25T07:19:19.262Z,23.70
2023-08-25T07:21:47.907Z,23.70
2023-08-25T07:24:18.127Z,23.90
2023-08-25T07:29:16.370Z,24.30
2023-08-25T07:34:14.411Z,24.80
2023-08-25T07:36:44.911Z,25.40
2023-08-25T07:39:13.962Z,25.30
2023-08-25T07:41:44.281Z,25.60
2023-08-25T07:44:13.013Z,25.40
2023-08-25T07:46:41.602Z,25.30
2023-08-25T07:51:41.177Z,25.70
2023-08-25T07:54:10.224Z,25.80
2023-08-25T07:56:39.840Z,25.80
2023-08-25T07:59:10.385Z,26.40
2023-08-25T08:01:39.733Z,26.20
2023-08-25T08:04:09.483Z,26.50
2023-08-25T08:06:38.503Z,26.70
2023-08-25T08:09:08.157Z,27.00
2023-08-25T08:11:37.226Z,27.40
2023-08-25T08:14:06.286Z,27.30
2023-08-25T08:16:38.485Z,27.50
2023-08-25T08:19:07.628Z,27.60
2023-08-25T08:21:37.146Z,27.50
2023-08-25T08:24:06.618Z,28.00
2023-08-25T08:26:35.146Z,28.00
2023-08-25T08:29:13.021Z,27.60
2023-08-25T08:31:43.248Z,28.30
2023-08-25T08:34:12.400Z,28.30
2023-08-25T08:36:41.322Z,28.60
2023-08-25T08:41:42.152Z,28.80
2023-08-25T08:44:16.407Z,28.80
2023-08-25T08:46:51.366Z,28.90
2023-08-25T08:49:23.382Z,28.90
2023-08-25T08:51:53.464Z,29.50
2023-08-25T08:54:23.069Z,29.80
2023-08-25T08:56:53.212Z,29.50
2023-08-25T09:01:53.502Z,30.00
2023-08-25T09:04:25.221Z,30.50
2023-08-25T09:06:54.873Z,31.00
2023-08-25T09:09:25.177Z,31.00
2023-08-25T09:14:29.989Z,32.10
2023-08-25T09:17:03.211Z,32.90
2023-08-25T09:19:33.267Z,33.80
2023-08-25T09:22:02.850Z,33.80
2023-08-25T09:27:01.126Z,34.90
2023-08-25T09:29:43.883Z,35.60
2023-08-25T09:32:17.954Z,36.50
2023-08-25T09:34:49.664Z,37.80
2023-08-25T09:37:18.474Z,37.00
2023-08-25T09:39:47.518Z,36.50
2023-08-25T09:42:17.995Z,36.70
2023-08-25T09:44:48.188Z,33.20
2023-08-25T09:47:18.830Z,36.30
2023-08-25T09:52:19.734Z,37.90
2023-08-25T09:54:49.642Z,37.50
2023-08-25T09:57:18.801Z,37.40
2023-08-25T09:59:48.502Z,37.90
2023-08-25T10:02:19.633Z,37.90
2023-08-25T10:04:50.170Z,37.50
2023-08-25T10:07:21.142Z,36.50
2023-08-25T10:09:50.537Z,35.80
2023-08-25T10:12:22.029Z,37.20
2023-08-25T10:14:53.468Z,36.90
2023-08-25T10:17:25.636Z,36.80
2023-08-25T10:19:59.087Z,36.60
2023-08-25T10:25:03.537Z,36.10
2023-08-25T10:27:34.063Z,36.20
2023-08-25T10:30:04.756Z,37.00
2023-08-25T10:32:57.838Z,36.20
2023-08-25T10:35:44.894Z,36.00
2023-08-25T10:38:40.804Z,36.10
2023-08-25T10:41:21.817Z,36.00
2023-08-25T10:43:53.759Z,35.40
2023-08-25T10:46:35.341Z,35.40
2023-08-25T10:49:13.054Z,35.60
2023-08-25T10:54:22.780Z,36.60
2023-08-25T10:59:26.171Z,36.40
2023-08-25T11:02:02.647Z,36.70
2023-08-25T11:04:33.585Z,35.80
2023-08-25T11:09:37.647Z,35.70
2023-08-25T11:12:11.375Z,36.30
2023-08-25T11:14:44.009Z,37.00
2023-08-25T11:19:47.669Z,37.30
2023-08-25T11:24:47.677Z,37.30
2023-08-25T11:27:18.351Z,36.80
2023-08-25T11:29:47.344Z,36.90
2023-08-25T11:34:50.510Z,35.80
2023-08-25T11:39:48.451Z,36.20
2023-08-25T11:42:22.129Z,38.50
2023-08-25T11:47:24.533Z,39.00
2023-08-25T11:49:55.573Z,38.70
2023-08-25T11:52:27.884Z,37.10
2023-08-25T11:57:36.117Z,36.90
2023-08-25T12:02:35.758Z,36.60
2023-08-25T12:05:07.097Z,36.50
2023-08-25T12:10:06.863Z,36.00
2023-08-25T12:12:39.327Z,35.80
2023-08-25T12:15:10.987Z,36.30
2023-08-25T12:20:17.393Z,36.10
2023-08-25T12:22:55.648Z,36.30
2023-08-25T12:28:40.538Z,35.40
2023-08-25T12:31:29.094Z,35.50
2023-08-25T12:36:45.215Z,36.50
2023-08-25T12:41:52.124Z,36.40
2023-08-25T12:44:29.935Z,36.30
2023-08-25T12:49:28.423Z,36.70
2023-08-25T12:52:10.189Z,37.00
2023-08-25T12:59:39.745Z,36.90
2023-08-25T13:02:12.960Z,36.10
2023-08-25T13:04:42.774Z,37.00
2023-08-25T13:07:16.051Z,36.80
2023-08-25T13:09:50.975Z,36.80
2023-08-25T13:14:51.386Z,37.00
2023-08-25T13:22:20.101Z,37.80
2023-08-25T13:24:48.909Z,37.30
2023-08-25T13:27:18.042Z,37.40
2023-08-25T13:32:21.560Z,36.10
2023-08-25T13:37:23.984Z,36.60
2023-08-25T13:39:54.129Z,37.00
2023-08-25T13:44:53.436Z,41.40
2023-08-25T13:49:55.526Z,36.50
2023-08-25T13:52:27.029Z,37.00
2023-08-25T13:54:56.910Z,36.50
2023-08-25T13:57:26.550Z,37.50
2023-08-25T14:02:24.925Z,38.60
2023-08-25T14:04:58.082Z,38.20
2023-08-25T14:07:28.712Z,38.10
2023-08-25T14:09:57.308Z,37.40
2023-08-25T14:12:26.657Z,37.00
2023-08-25T14:17:25.183Z,36.60
2023-08-25T14:19:57.538Z,37.00
2023-08-25T14:22:27.821Z,36.90
2023-08-25T14:24:56.448Z,37.00
2023-08-25T14:27:25.731Z,36.90
2023-08-25T14:32:24.164Z,36.90
2023-08-25T14:34:53.028Z,37.00
2023-08-25T14:37:21.718Z,36.90
2023-08-25T14:39:54.977Z,36.20
2023-08-25T14:42:24.684Z,36.40
2023-08-25T14:44:54.748Z,36.20
2023-08-25T14:52:23.500Z,33.30
2023-08-25T14:54:54.260Z,33.00
2023-08-25T14:57:23.686Z,32.50
2023-08-25T14:59:52.660Z,32.70
2023-08-25T15:02:21.722Z,32.40
2023-08-25T15:09:50.678Z,31.90
2023-08-25T15:12:20.886Z,31.30
2023-08-25T15:14:50.878Z,31.20
2023-08-25T15:17:19.869Z,31.20
2023-08-25T15:19:48.576Z,31.10
2023-08-25T15:22:18.133Z,31.20
2023-08-25T15:24:47.413Z,31.20
2023-08-25T15:27:17.453Z,31.10
2023-08-25T15:29:51.609Z,30.80
2023-08-25T15:32:20.888Z,30.60
2023-08-25T15:34:51.212Z,30.30
2023-08-25T15:37:20.130Z,30.00
2023-08-25T15:39:49.715Z,29.80
2023-08-25T15:42:18.748Z,29.70
2023-08-25T15:44:48.791Z,29.80
2023-08-25T15:47:17.597Z,29.80
2023-08-25T15:49:46.330Z,29.60
2023-08-25T15:52:15.080Z,29.50
2023-08-25T15:54:43.839Z,28.90
2023-08-25T15:57:12.569Z,28.50
2023-08-25T15:59:42.390Z,28.20
2023-08-25T16:02:14.243Z,27.90
2023-08-25T16:04:42.996Z,27.60
2023-08-25T16:07:12.082Z,27.60
2023-08-25T16:09:41.443Z,27.70
2023-08-25T16:12:11.963Z,27.70
2023-08-25T16:14:41.502Z,27.60
2023-08-25T16:17:10.182Z,27.60
2023-08-25T16:19:40.953Z,27.50
2023-08-25T16:22:11.025Z,27.40
2023-08-25T16:24:39.814Z,27.30
2023-08-25T16:27:08.756Z,27.30
2023-08-25T16:29:38.303Z,27.30
2023-08-25T16:32:08.411Z,27.30
2023-08-25T16:34:37.374Z,26.70
2023-08-25T16:37:08.302Z,27.60
2023-08-25T16:42:06.389Z,27.90
2023-08-25T16:47:04.060Z,27.80
2023-08-25T16:49:33.019Z,27.70
2023-08-25T16:52:01.656Z,27.50
2023-08-25T16:54:32.924Z,27.40
2023-08-25T16:57:02.303Z,27.90
2023-08-25T16:59:33.371Z,28.00
2023-08-25T17:02:05.000Z,27.90
2023-08-25T17:07:03.206Z,27.40
2023-08-25T17:09:33.758Z,27.40
2023-08-25T17:12:03.113Z,27.10
2023-08-25T17:14:35.081Z,27.40
2023-08-25T17:17:04.913Z,27.50
2023-08-25T17:19:34.896Z,27.40
2023-08-25T17:22:03.888Z,27.50
2023-08-25T17:24:34.293Z,27.40
2023-08-25T17:27:04.745Z,26.80
2023-08-25T17:29:33.970Z,26.70
2023-08-25T17:32:03.152Z,27.00
2023-08-25T17:34:32.353Z,27.00
2023-08-25T17:37:01.311Z,26.90
2023-08-25T17:39:30.638Z,26.90
2023-08-25T17:42:00.773Z,27.00
2023-08-25T17:44:29.741Z,27.10
2023-08-25T17:46:58.932Z,27.00
2023-08-25T17:49:27.695Z,26.50
2023-08-25T17:51:56.605Z,26.10
2023-08-25T17:54:25.329Z,26.10
2023-08-25T17:56:54.034Z,26.00
2023-08-25T17:59:24.280Z,25.80
2023-08-25T18:01:53.687Z,26.40
2023-08-25T18:11:52.067Z,25.70
2023-08-25T18:16:51.379Z,25.40
2023-08-25T18:24:18.448Z,25.10
2023-08-25T18:26:47.658Z,25.10
2023-08-25T18:29:16.423Z,25.20
2023-08-25T18:31:45.320Z,25.30
2023-08-25T18:34:15.864Z,25.10
2023-08-25T18:36:44.752Z,24.40
2023-08-25T18:41:42.635Z,25.30
2023-08-25T18:46:41.380Z,25.20
2023-08-25T18:51:43.620Z,24.70
2023-08-25T18:56:42.136Z,24.30
2023-08-25T18:59:12.941Z,24.30
2023-08-25T19:01:44.206Z,24.10
2023-08-25T19:06:44.731Z,24.10
2023-08-25T19:11:44.750Z,24.10
2023-08-25T19:16:43.347Z,23.90
2023-08-25T19:21:42.557Z,23.50
2023-08-25T19:26:41.201Z,23.60
2023-08-25T19:31:39.719Z,23.40
2023-08-25T19:39:10.062Z,23.60
2023-08-25T19:41:39.487Z,23.50
2023-08-25T19:44:09.138Z,23.50
2023-08-25T19:46:38.038Z,23.10
2023-08-25T19:51:37.754Z,25.90
2023-08-25T19:56:38.764Z,23.80
2023-08-25T20:01:37.543Z,23.70
2023-08-25T20:04:07.248Z,24.00
2023-08-25T20:06:36.321Z,23.70
2023-08-25T20:11:34.866Z,23.80
2023-08-25T20:14:06.061Z,23.40
2023-08-25T20:16:35.305Z,23.50
2023-08-25T20:26:33.260Z,22.80
2023-08-25T20:31:33.205Z,22.50
2023-08-25T20:36:32.078Z,22.10
2023-08-25T20:39:01.056Z,22.30
2023-08-25T20:41:29.863Z,22.10
2023-08-25T20:46:28.678Z,22.70
2023-08-25T20:48:59.594Z,22.60
2023-08-25T20:51:28.879Z,22.50
2023-08-25T20:53:58.867Z,22.50
2023-08-25T20:56:28.714Z,22.30
2023-08-25T20:58:58.030Z,22.40
2023-08-25T21:01:28.128Z,22.70
2023-08-25T21:06:34.252Z,22.50
2023-08-25T21:11:32.938Z,22.30
2023-08-25T21:16:37.619Z,21.80
2023-08-25T21:21:40.796Z,20.90
2023-08-25T21:24:11.776Z,21.20
2023-08-25T21:26:41.463Z,21.20
2023-08-25T21:31:41.273Z,21.20
2023-08-25T21:36:41.379Z,21.40
2023-08-25T21:41:39.033Z,21.70
2023-08-25T21:44:08.078Z,21.90
2023-08-25T21:46:37.620Z,21.70
2023-08-25T21:49:08.056Z,22.30
2023-08-25T21:51:36.968Z,22.20
2023-08-25T21:54:09.471Z,22.20
2023-08-25T21:56:39.324Z,22.20
2023-08-25T22:01:37.284Z,21.80
2023-08-25T22:06:39.778Z,21.50
2023-08-25T22:09:10.852Z,20.80
2023-08-25T22:11:39.519Z,20.50
2023-08-25T22:16:39.137Z,20.00
2023-08-25T22:21:37.180Z,19.80
2023-08-25T22:26:44.211Z,19.70
2023-08-25T22:31:45.679Z,19.80
2023-08-25T22:36:44.515Z,19.60
2023-08-25T22:41:43.912Z,19.60
2023-08-25T22:46:41.554Z,19.50
2023-08-25T22:51:40.460Z,19.60
2023-08-25T22:56:41.277Z,19.40
2023-08-25T22:59:12.852Z,19.20
2023-08-25T23:01:41.605Z,19.10
2023-08-25T23:06:39.352Z,19.10
2023-08-25T23:11:37.543Z,19.10
2023-08-25T23:16:36.527Z,18.90
2023-08-25T23:21:35.564Z,19.00
2023-08-25T23:26:33.467Z,19.10
2023-08-25T23:31:31.057Z,20.00
2023-08-25T23:34:01.226Z,20.40
2023-08-25T23:36:29.979Z,20.60
2023-08-25T23:46:25.517Z,21.10
2023-08-25T23:51:24.337Z,20.60
2023-08-25T23:56:21.795Z,20.00
